createdAt,value
2022-09-28T00:01:27.153Z,20.66
2022-09-28T00:03:53.824Z,20.65
2022-09-28T00:06:20.365Z,20.64
2022-09-28T00:08:45.907Z,20.66
2022-09-28T00:11:12.960Z,20.67
2022-09-28T00:13:39.484Z,20.66
2022-09-28T00:16:06.335Z,20.65
2022-09-28T00:18:31.954Z,20.66
2022-09-28T00:20:59.179Z,20.67
2022-09-28T00:23:24.721Z,20.66
2022-09-28T00:25:50.280Z,20.66
2022-09-28T00:28:15.828Z,20.65
2022-09-28T00:30:41.412Z,20.66
2022-09-28T00:33:06.951Z,20.65
2022-09-28T00:35:32.502Z,20.65
2022-09-28T00:37:58.039Z,20.65
2022-09-28T00:40:23.627Z,20.68
2022-09-28T00:42:49.213Z,20.66
2022-09-28T00:45:14.929Z,20.65
2022-09-28T00:47:42.817Z,20.66
2022-09-28T00:53:00.872Z,20.65
2022-09-28T00:55:30.358Z,20.64
2022-09-28T00:57:56.275Z,20.63
2022-09-28T01:00:21.946Z,20.64
2022-09-28T01:02:47.504Z,20.63
2022-09-28T01:05:13.254Z,20.65
2022-09-28T01:07:38.795Z,20.64
2022-09-28T01:10:05.074Z,20.64
2022-09-28T01:12:30.613Z,20.64
2022-09-28T01:14:56.165Z,20.64
2022-09-28T01:17:24.847Z,20.65
2022-09-28T01:20:10.277Z,20.65
2022-09-28T01:22:43.362Z,20.65
2022-09-28T01:25:10.526Z,20.64
2022-09-28T01:27:42.176Z,20.64
2022-09-28T01:30:08.679Z,20.64
2022-09-28T01:32:35.868Z,20.64
2022-09-28T01:35:21.364Z,20.64
2022-09-28T01:37:51.432Z,20.64
2022-09-28T01:40:17.088Z,20.64
2022-09-28T01:42:43.386Z,20.63
2022-09-28T01:45:11.054Z,20.63
2022-09-28T01:47:37.100Z,20.63
2022-09-28T01:50:10.820Z,20.63
2022-09-28T01:52:44.924Z,20.65
2022-09-28T01:55:11.683Z,20.64
2022-09-28T01:57:40.914Z,20.64
2022-09-28T02:00:07.515Z,20.63
2022-09-28T02:02:35.206Z,20.63
2022-09-28T02:05:04.923Z,20.63
2022-09-28T02:07:33.275Z,20.63
2022-09-28T02:10:00.081Z,20.62
2022-09-28T02:12:29.127Z,20.64
2022-09-28T02:14:55.192Z,20.64
2022-09-28T02:17:20.739Z,20.64
2022-09-28T02:19:46.290Z,20.63
2022-09-28T02:22:22.317Z,20.63
2022-09-28T02:24:55.867Z,20.62
2022-09-28T02:27:25.089Z,20.65
2022-09-28T02:29:50.637Z,20.62
2022-09-28T02:32:16.276Z,20.62
2022-09-28T02:34:41.815Z,20.63
2022-09-28T02:37:07.359Z,20.62
2022-09-28T02:39:32.893Z,20.62
2022-09-28T02:42:18.479Z,20.62
2022-09-28T02:45:04.150Z,20.62
2022-09-28T02:47:35.148Z,20.61
2022-09-28T02:50:20.590Z,20.63
2022-09-28T02:52:58.496Z,20.62
2022-09-28T02:55:35.614Z,20.63
2022-09-28T02:58:21.043Z,20.61
2022-09-28T03:00:51.599Z,20.62
2022-09-28T03:03:18.145Z,20.62
2022-09-28T03:05:46.556Z,20.63
2022-09-28T03:08:18.871Z,20.63
2022-09-28T03:10:46.043Z,20.64
2022-09-28T03:13:11.593Z,20.64
2022-09-28T03:15:37.197Z,20.63
2022-09-28T03:18:02.744Z,20.62
2022-09-28T03:20:28.795Z,20.62
2022-09-28T03:23:19.644Z,20.63
2022-09-28T03:25:39.952Z,20.64
2022-09-28T03:28:05.492Z,20.63
2022-09-28T03:30:31.060Z,20.61
2022-09-28T03:32:58.507Z,20.61
2022-09-28T03:35:24.052Z,20.63
2022-09-28T03:37:49.596Z,20.62
2022-09-28T03:40:15.226Z,20.62
2022-09-28T03:42:43.085Z,20.61
2022-09-28T03:45:08.764Z,20.61
2022-09-28T03:47:34.309Z,20.62
2022-09-28T03:49:59.849Z,20.61
2022-09-28T03:52:25.404Z,20.60
2022-09-28T03:54:50.954Z,20.61
2022-09-28T03:57:16.507Z,20.62
2022-09-28T03:59:42.043Z,20.60
2022-09-28T04:02:07.699Z,20.60
2022-09-28T04:04:33.299Z,20.60
2022-09-28T04:06:58.848Z,20.60
2022-09-28T04:09:24.384Z,20.62
2022-09-28T04:12:03.459Z,20.62
2022-09-28T04:14:29.623Z,20.61
2022-09-28T04:16:55.175Z,20.62
2022-09-28T04:19:21.344Z,20.61
2022-09-28T04:21:47.259Z,20.61
2022-09-28T04:24:13.392Z,20.62
2022-09-28T04:26:38.986Z,20.61
2022-09-28T04:29:20.223Z,20.61
2022-09-28T04:31:46.674Z,20.61
2022-09-28T04:34:13.860Z,20.61
2022-09-28T04:36:39.844Z,20.62
2022-09-28T04:39:05.379Z,20.61
2022-09-28T04:41:30.926Z,20.61
2022-09-28T04:43:56.472Z,20.63
2022-09-28T04:46:22.031Z,20.62
2022-09-28T04:48:47.603Z,20.62
2022-09-28T04:51:13.150Z,20.61
2022-09-28T04:53:38.689Z,20.62
2022-09-28T04:56:06.119Z,20.62
2022-09-28T04:58:31.657Z,20.59
2022-09-28T05:00:58.436Z,20.59
2022-09-28T05:03:23.982Z,20.55
2022-09-28T05:05:49.541Z,20.53
2022-09-28T05:08:15.292Z,20.52
2022-09-28T05:10:40.838Z,20.54
2022-09-28T05:13:06.725Z,20.56
2022-09-28T05:15:33.838Z,20.56
2022-09-28T05:17:59.813Z,20.57
2022-09-28T05:20:25.369Z,20.58
2022-09-28T05:22:50.920Z,20.58
2022-09-28T05:25:16.483Z,20.60
2022-09-28T05:27:42.017Z,20.59
2022-09-28T05:30:07.879Z,20.59
2022-09-28T05:32:33.428Z,20.60
2022-09-28T05:35:00.350Z,20.61
2022-09-28T05:37:25.887Z,20.59
2022-09-28T05:39:51.432Z,20.58
2022-09-28T05:42:16.968Z,20.54
2022-09-28T05:44:42.507Z,20.52
2022-09-28T05:47:08.066Z,20.51
2022-09-28T05:49:33.603Z,20.50
2022-09-28T05:51:59.161Z,20.51
2022-09-28T05:54:24.695Z,20.50
2022-09-28T05:56:50.245Z,20.50
2022-09-28T05:59:15.869Z,20.51
2022-09-28T06:01:41.480Z,20.52
2022-09-28T06:04:08.116Z,20.54
2022-09-28T06:06:34.050Z,20.56
2022-09-28T06:08:59.587Z,20.55
2022-09-28T06:11:26.773Z,20.56
2022-09-28T06:13:53.211Z,20.56
2022-09-28T06:16:18.817Z,20.56
2022-09-28T06:18:44.399Z,20.56
2022-09-28T06:21:11.429Z,20.55
2022-09-28T06:23:37.367Z,20.56
2022-09-28T06:26:02.923Z,20.56
2022-09-28T06:28:28.466Z,20.57
2022-09-28T06:30:54.144Z,20.58
2022-09-28T06:33:19.814Z,20.59
2022-09-28T06:35:45.370Z,20.59
2022-09-28T06:38:10.912Z,20.59
2022-09-28T06:40:36.677Z,20.59
2022-09-28T06:43:06.143Z,20.58
2022-09-28T06:45:31.691Z,20.59
2022-09-28T06:47:58.099Z,20.58
2022-09-28T06:50:24.535Z,20.58
2022-09-28T06:52:50.970Z,20.62
2022-09-28T06:55:16.550Z,20.60
2022-09-28T06:57:42.091Z,20.58
2022-09-28T07:00:07.906Z,20.56
2022-09-28T07:02:33.488Z,20.59
2022-09-28T07:04:59.107Z,20.57
2022-09-28T07:07:24.758Z,20.57
2022-09-28T07:09:55.360Z,20.58
2022-09-28T07:12:22.358Z,20.57
2022-09-28T07:14:49.637Z,20.59
2022-09-28T07:17:15.619Z,20.58
2022-09-28T07:19:41.241Z,20.59
2022-09-28T07:22:06.799Z,20.59
2022-09-28T07:24:32.334Z,20.58
2022-09-28T07:26:57.894Z,20.60
2022-09-28T07:29:23.432Z,20.61
2022-09-28T07:31:48.986Z,20.50
2022-09-28T07:34:14.613Z,20.57
2022-09-28T07:36:40.252Z,20.54
2022-09-28T07:39:05.791Z,20.58
2022-09-28T07:41:31.729Z,20.60
2022-09-28T07:43:59.235Z,20.60
2022-09-28T07:46:24.825Z,20.60
2022-09-28T07:48:50.894Z,20.61
2022-09-28T07:51:18.960Z,20.60
2022-09-28T07:53:44.991Z,20.60
2022-09-28T07:56:11.142Z,20.61
2022-09-28T07:58:37.321Z,20.61
2022-09-28T08:01:04.131Z,20.61
2022-09-28T08:03:29.711Z,20.60
2022-09-28T08:05:56.860Z,20.60
2022-09-28T08:08:22.429Z,20.61
2022-09-28T08:10:48.030Z,20.60
2022-09-28T08:13:15.512Z,20.60
2022-09-28T08:15:41.683Z,20.61
2022-09-28T08:18:07.223Z,20.63
2022-09-28T08:20:52.812Z,20.65
2022-09-28T08:23:19.135Z,20.60
2022-09-28T08:25:48.141Z,20.60
2022-09-28T08:28:15.239Z,20.59
2022-09-28T08:30:40.961Z,20.60
2022-09-28T08:33:06.959Z,20.51
2022-09-28T08:35:32.520Z,20.30
2022-09-28T08:37:58.420Z,20.50
2022-09-28T08:40:24.479Z,20.56
2022-09-28T08:42:52.560Z,20.55
2022-09-28T08:45:21.907Z,20.36
2022-09-28T08:48:10.747Z,19.91
2022-09-28T08:50:38.829Z,20.15
2022-09-28T08:53:22.434Z,20.04
2022-09-28T08:55:48.497Z,19.69
2022-09-28T08:58:18.645Z,19.75
2022-09-28T09:00:46.452Z,20.09
2022-09-28T09:03:12.886Z,20.33
2022-09-28T09:05:48.757Z,20.45
2022-09-28T09:08:20.551Z,20.51
2022-09-28T09:10:49.051Z,20.43
2022-09-28T09:13:34.479Z,20.52
2022-09-28T09:16:20.108Z,20.41
2022-09-28T09:18:55.151Z,20.53
2022-09-28T09:21:26.843Z,20.53
2022-09-28T09:23:54.398Z,20.51
2022-09-28T09:26:24.681Z,20.57
2022-09-28T09:29:11.411Z,20.53
2022-09-28T09:31:42.060Z,20.56
2022-09-28T09:37:08.566Z,20.58
2022-09-28T09:39:37.774Z,20.58
2022-09-28T09:44:50.050Z,20.57
2022-09-28T09:47:17.134Z,20.58
2022-09-28T09:50:05.531Z,20.58
2022-09-28T09:52:56.336Z,20.56
2022-09-28T09:55:29.638Z,20.59
2022-09-28T09:57:59.391Z,20.58
2022-09-28T10:00:24.942Z,20.59
2022-09-28T10:02:50.518Z,20.59
2022-09-28T10:05:17.969Z,20.61
2022-09-28T10:08:03.723Z,20.61
2022-09-28T10:10:30.003Z,20.59
2022-09-28T10:12:55.543Z,20.57
2022-09-28T10:15:23.432Z,20.60
2022-09-28T10:17:48.981Z,20.60
2022-09-28T10:20:15.327Z,20.59
2022-09-28T10:22:40.896Z,20.62
2022-09-28T10:25:08.124Z,20.64
2022-09-28T10:27:34.426Z,20.62
2022-09-28T10:30:01.343Z,20.64
2022-09-28T10:32:35.419Z,20.64
2022-09-28T10:35:21.314Z,20.65
2022-09-28T10:37:53.371Z,20.66
2022-09-28T10:40:29.312Z,20.25
2022-09-28T10:43:03.044Z,20.50
2022-09-28T10:45:30.784Z,20.60
2022-09-28T10:47:56.320Z,20.61
2022-09-28T10:50:22.912Z,20.65
2022-09-28T10:52:48.467Z,20.67
2022-09-28T10:55:22.585Z,20.54
2022-09-28T10:57:48.134Z,20.68
2022-09-28T11:00:28.395Z,20.69
2022-09-28T11:02:53.995Z,20.68
2022-09-28T11:05:20.462Z,20.69
2022-09-28T11:07:46.308Z,20.70
2022-09-28T11:10:21.564Z,20.78
2022-09-28T11:12:47.265Z,20.70
2022-09-28T11:15:16.502Z,20.76
2022-09-28T11:17:43.018Z,20.74
2022-09-28T11:22:59.750Z,20.74
2022-09-28T11:25:26.210Z,20.73
2022-09-28T11:30:28.949Z,20.75
2022-09-28T11:32:56.488Z,20.73
2022-09-28T11:35:24.542Z,20.74
2022-09-28T11:37:54.099Z,20.75
2022-09-28T11:40:26.911Z,20.75
2022-09-28T11:42:56.782Z,20.78
2022-09-28T11:45:42.353Z,20.76
2022-09-28T11:48:08.611Z,20.77
2022-09-28T11:50:54.045Z,20.85
2022-09-28T11:53:21.516Z,20.92
2022-09-28T11:55:54.052Z,20.84
2022-09-28T11:58:36.080Z,20.91
2022-09-28T12:01:04.367Z,20.92
2022-09-28T12:03:39.743Z,20.86
2022-09-28T12:06:06.281Z,20.59
2022-09-28T12:08:33.915Z,20.26
2022-09-28T12:11:01.542Z,20.27
2022-09-28T12:13:27.790Z,20.50
2022-09-28T12:19:05.463Z,20.83
2022-09-28T12:21:35.923Z,20.86
2022-09-28T12:24:05.409Z,20.83
2022-09-28T12:26:37.942Z,20.85
2022-09-28T12:29:06.261Z,20.85
2022-09-28T12:31:33.952Z,20.86
2022-09-28T12:33:59.876Z,20.87
2022-09-28T12:36:44.567Z,20.89
2022-09-28T12:39:46.662Z,20.87
2022-09-28T12:42:35.414Z,20.87
2022-09-28T12:45:21.175Z,20.86
2022-09-28T12:47:56.828Z,20.87
2022-09-28T12:50:47.498Z,20.85
2022-09-28T12:53:31.653Z,20.87
2022-09-28T12:56:05.447Z,20.86
2022-09-28T12:58:35.901Z,20.87
2022-09-28T13:01:21.230Z,20.83
2022-09-28T13:03:51.440Z,20.84
2022-09-28T13:06:25.024Z,20.83
2022-09-28T13:09:10.639Z,20.83
2022-09-28T13:11:48.353Z,20.82
2022-09-28T13:14:24.296Z,20.81
2022-09-28T13:17:08.799Z,20.86
2022-09-28T13:19:44.508Z,20.88
2022-09-28T13:22:28.891Z,20.89
2022-09-28T13:24:54.787Z,20.87
2022-09-28T13:27:27.902Z,20.85
2022-09-28T13:29:55.683Z,20.87
2022-09-28T13:32:25.152Z,20.87
2022-09-28T13:34:50.740Z,20.87
2022-09-28T13:39:52.142Z,20.90
2022-09-28T13:42:37.964Z,20.90
2022-09-28T13:45:23.464Z,20.90
2022-09-28T13:48:09.856Z,20.89
2022-09-28T13:50:55.385Z,20.87
2022-09-28T13:56:02.612Z,20.91
2022-09-28T13:58:30.593Z,20.88
2022-09-28T14:00:59.153Z,20.87
2022-09-28T14:03:26.267Z,20.89
2022-09-28T14:06:10.069Z,20.87
2022-09-28T14:08:37.548Z,20.86
2022-09-28T14:11:24.099Z,20.88
2022-09-28T14:14:12.850Z,20.87
2022-09-28T14:16:38.719Z,20.87
2022-09-28T14:19:08.045Z,20.87
2022-09-28T14:21:53.471Z,20.89
2022-09-28T14:24:38.946Z,20.89
2022-09-28T14:27:11.365Z,20.88
2022-09-28T14:29:37.593Z,20.86
2022-09-28T14:32:04.239Z,20.89
2022-09-28T14:34:32.155Z,20.88
2022-09-28T14:37:17.595Z,20.88
2022-09-28T14:40:03.692Z,20.88
2022-09-28T14:42:29.249Z,20.90
2022-09-28T14:47:43.910Z,20.89
2022-09-28T14:50:20.454Z,20.89
2022-09-28T14:52:46.257Z,20.86
2022-09-28T14:55:13.619Z,20.87
2022-09-28T14:57:40.140Z,20.88
2022-09-28T15:00:07.876Z,20.89
2022-09-28T15:02:34.163Z,20.89
2022-09-28T15:05:06.660Z,20.89
2022-09-28T15:07:52.428Z,20.90
2022-09-28T15:10:27.312Z,20.93
2022-09-28T15:12:53.364Z,20.96
2022-09-28T15:15:24.097Z,20.98
2022-09-28T15:17:51.091Z,20.98
2022-09-28T15:20:24.783Z,20.97
2022-09-28T15:22:51.035Z,21.00
2022-09-28T15:25:19.144Z,20.99
2022-09-28T15:27:46.571Z,20.99
2022-09-28T15:30:28.104Z,21.01
2022-09-28T15:32:55.963Z,21.03
2022-09-28T15:35:25.538Z,21.02
2022-09-28T15:37:51.403Z,21.00
2022-09-28T15:40:17.967Z,21.01
2022-09-28T15:42:44.483Z,21.00
2022-09-28T15:47:47.731Z,20.96
2022-09-28T15:50:28.330Z,20.96
2022-09-28T15:52:55.659Z,20.96
2022-09-28T15:55:41.225Z,20.96
2022-09-28T15:58:09.525Z,20.95
2022-09-28T16:00:35.096Z,20.95
2022-09-28T16:03:18.348Z,20.93
2022-09-28T16:05:45.981Z,20.94
2022-09-28T16:08:20.467Z,20.90
2022-09-28T16:10:54.643Z,20.90
2022-09-28T16:13:20.273Z,20.89
2022-09-28T16:15:45.876Z,20.91
2022-09-28T16:20:49.123Z,20.89
2022-09-28T16:23:18.348Z,20.88
2022-09-28T16:25:48.279Z,20.88
2022-09-28T16:28:34.744Z,20.86
2022-09-28T16:31:01.683Z,20.88
2022-09-28T16:33:28.585Z,20.88
2022-09-28T16:35:54.139Z,20.87
2022-09-28T16:38:19.819Z,20.87
2022-09-28T16:40:47.123Z,20.86
2022-09-28T16:43:16.551Z,20.89
2022-09-28T16:45:42.115Z,20.87
2022-09-28T16:48:08.470Z,20.86
2022-09-28T16:50:34.007Z,20.86
2022-09-28T16:53:20.955Z,20.86
2022-09-28T16:55:47.183Z,20.87
2022-09-28T16:58:12.739Z,20.86
2022-09-28T17:00:38.274Z,20.85
2022-09-28T17:03:10.516Z,20.85
2022-09-28T17:05:39.159Z,20.84
2022-09-28T17:08:04.707Z,20.83
2022-09-28T17:10:45.139Z,20.85
2022-09-28T17:13:22.477Z,20.86
2022-09-28T17:15:49.362Z,20.84
2022-09-28T17:18:15.769Z,20.84
2022-09-28T17:20:41.978Z,20.84
2022-09-28T17:23:07.526Z,20.84
2022-09-28T17:25:33.063Z,20.83
2022-09-28T17:27:58.622Z,20.84
2022-09-28T17:30:25.766Z,20.83
2022-09-28T17:32:51.524Z,20.83
2022-09-28T17:35:25.843Z,20.80
2022-09-28T17:37:51.519Z,20.82
2022-09-28T17:40:18.132Z,20.82
2022-09-28T17:42:43.720Z,20.83
2022-09-28T17:45:09.291Z,20.83
2022-09-28T17:47:34.844Z,20.83
2022-09-28T17:50:00.379Z,20.81
2022-09-28T17:52:25.928Z,20.82
2022-09-28T17:54:51.465Z,20.80
2022-09-28T17:57:17.012Z,20.80
2022-09-28T17:59:42.548Z,20.81
2022-09-28T18:02:09.397Z,20.80
2022-09-28T18:04:51.437Z,20.79
2022-09-28T18:07:17.590Z,20.79
2022-09-28T18:09:43.132Z,20.78
2022-09-28T18:12:08.806Z,20.77
2022-09-28T18:14:35.023Z,20.78
2022-09-28T18:17:00.589Z,20.78
2022-09-28T18:19:31.693Z,20.78
2022-09-28T18:21:57.847Z,20.76
2022-09-28T18:24:23.387Z,20.79
2022-09-28T18:26:48.939Z,20.77
2022-09-28T18:29:15.967Z,20.77
2022-09-28T18:31:41.510Z,20.78
2022-09-28T18:34:07.085Z,20.76
2022-09-28T18:36:34.804Z,20.75
2022-09-28T18:39:00.700Z,20.76
2022-09-28T18:41:26.316Z,20.77
2022-09-28T18:43:52.285Z,20.76
2022-09-28T18:46:18.234Z,20.77
2022-09-28T18:48:43.960Z,20.76
2022-09-28T18:51:10.385Z,20.74
2022-09-28T18:53:36.315Z,20.76
2022-09-28T18:56:07.098Z,20.77
2022-09-28T18:58:33.413Z,20.76
2022-09-28T19:01:18.723Z,20.75
2022-09-28T19:03:44.471Z,20.73
2022-09-28T19:06:10.474Z,20.75
2022-09-28T19:08:36.221Z,20.75
2022-09-28T19:11:10.214Z,20.75
2022-09-28T19:13:35.763Z,20.73
2022-09-28T19:16:21.222Z,20.74
2022-09-28T19:18:47.046Z,20.74
2022-09-28T19:21:13.270Z,20.74
2022-09-28T19:23:39.067Z,20.71
2022-09-28T19:26:05.507Z,20.73
2022-09-28T19:28:31.520Z,20.73
2022-09-28T19:30:57.607Z,20.74
2022-09-28T19:33:23.260Z,20.72
2022-09-28T19:36:04.819Z,20.74
2022-09-28T19:38:31.149Z,20.72
2022-09-28T19:40:56.854Z,20.72
2022-09-28T19:43:22.434Z,20.72
2022-09-28T19:45:55.140Z,20.72
2022-09-28T19:48:28.078Z,20.72
2022-09-28T19:50:55.594Z,20.73
2022-09-28T19:53:22.673Z,20.73
2022-09-28T19:55:49.875Z,20.73
2022-09-28T19:58:15.458Z,20.72
2022-09-28T20:00:41.004Z,20.72
2022-09-28T20:03:06.606Z,20.72
2022-09-28T20:05:32.189Z,20.70
2022-09-28T20:07:57.763Z,20.71
2022-09-28T20:10:23.319Z,20.73
2022-09-28T20:12:50.410Z,20.72
2022-09-28T20:15:15.947Z,20.74
2022-09-28T20:17:41.504Z,20.73
2022-09-28T20:20:07.191Z,20.74
2022-09-28T20:22:32.745Z,20.74
2022-09-28T20:24:59.229Z,20.71
2022-09-28T20:27:26.651Z,20.70
2022-09-28T20:29:52.240Z,20.74
2022-09-28T20:32:17.787Z,20.72
2022-09-28T20:34:43.324Z,20.74
2022-09-28T20:37:08.881Z,20.74
2022-09-28T20:39:34.417Z,20.74
2022-09-28T20:41:59.960Z,20.73
2022-09-28T20:44:25.498Z,20.75
2022-09-28T20:46:51.045Z,20.74
2022-09-28T20:49:16.591Z,20.73
2022-09-28T20:51:42.548Z,20.74
2022-09-28T20:54:08.094Z,20.74
2022-09-28T20:56:36.795Z,20.71
2022-09-28T20:59:02.463Z,20.72
2022-09-28T21:01:29.155Z,20.73
2022-09-28T21:03:55.743Z,20.72
2022-09-28T21:06:22.204Z,20.72
2022-09-28T21:08:48.750Z,20.71
2022-09-28T21:11:15.144Z,20.72
2022-09-28T21:13:42.036Z,20.73
2022-09-28T21:16:09.325Z,20.73
2022-09-28T21:18:34.915Z,20.72
2022-09-28T21:21:00.456Z,20.72
2022-09-28T21:23:26.003Z,20.71
2022-09-28T21:26:07.928Z,20.71
2022-09-28T21:28:33.678Z,20.72
2022-09-28T21:31:00.285Z,20.70
2022-09-28T21:33:25.873Z,20.70
2022-09-28T21:35:51.417Z,20.69
2022-09-28T21:38:16.980Z,20.71
2022-09-28T21:40:42.594Z,20.70
2022-09-28T21:43:08.216Z,20.69
2022-09-28T21:45:33.755Z,20.70
2022-09-28T21:47:59.307Z,20.71
2022-09-28T21:50:25.274Z,20.71
2022-09-28T21:52:52.386Z,20.69
2022-09-28T21:55:18.530Z,20.67
2022-09-28T21:57:44.675Z,20.70
2022-09-28T22:00:10.760Z,20.71
2022-09-28T22:02:38.094Z,20.68
2022-09-28T22:05:04.091Z,20.70
2022-09-28T22:07:29.640Z,20.69
2022-09-28T22:09:55.186Z,20.68
2022-09-28T22:12:20.737Z,20.69
2022-09-28T22:14:46.285Z,20.69
2022-09-28T22:17:11.836Z,20.70
2022-09-28T22:19:37.411Z,20.72
2022-09-28T22:22:02.969Z,20.71
2022-09-28T22:24:28.507Z,20.70
2022-09-28T22:26:54.051Z,20.69
2022-09-28T22:29:20.818Z,20.68
2022-09-28T22:31:46.363Z,20.70
2022-09-28T22:34:11.975Z,20.70
2022-09-28T22:36:37.663Z,20.69
2022-09-28T22:39:03.202Z,20.67
2022-09-28T22:41:29.179Z,20.69
2022-09-28T22:43:54.871Z,20.70
2022-09-28T22:46:21.524Z,20.67
2022-09-28T22:48:47.839Z,20.68
2022-09-28T22:51:13.875Z,20.69
2022-09-28T22:53:39.420Z,20.68
2022-09-28T22:56:05.282Z,20.68
2022-09-28T22:58:31.221Z,20.69
2022-09-28T23:01:03.744Z,20.67
2022-09-28T23:03:29.291Z,20.67
2022-09-28T23:05:54.917Z,20.68
2022-09-28T23:08:21.374Z,20.69
2022-09-28T23:10:47.065Z,20.67
2022-09-28T23:13:12.752Z,20.67
2022-09-28T23:15:38.320Z,20.67
2022-09-28T23:18:03.901Z,20.68
2022-09-28T23:20:29.443Z,20.68
2022-09-28T23:22:55.003Z,20.68
2022-09-28T23:25:20.543Z,20.67
2022-09-28T23:27:46.413Z,20.67
2022-09-28T23:30:12.079Z,20.67
2022-09-28T23:32:37.629Z,20.66
2022-09-28T23:35:03.253Z,20.67
2022-09-28T23:37:28.802Z,20.67
2022-09-28T23:39:55.067Z,20.65
2022-09-28T23:42:20.619Z,20.65
2022-09-28T23:44:46.158Z,20.67
2022-09-28T23:47:11.699Z,20.68
2022-09-28T23:49:37.234Z,20.67
2022-09-28T23:52:02.780Z,20.66
2022-09-28T23:54:28.313Z,20.65
2022-09-28T23:56:53.880Z,20.66
2022-09-28T23:59:19.519Z,20.66
